Time;durP1;ratioP1;P1;durP2;ratioP2;P2;SDS_P1;SDS_P2;PMS_P1;PMS_P2;Temp;Humidity;BMP_temperature;BMP_pressure;BME280_temperature;BME280_humidity;BME280_pressure;Samples;Min_cycle;Max_cycle;Signal;HPM_P1;HPM_P2
2021/11/13 00:00:54;;;;;;;23.47;9.67;;;4.20;1.00;;;;;;5014555;28;20973;-76
2021/11/13 00:03:20;;;;;;;20.63;10.30;;;4.10;1.00;;;;;;5010882;28;20431;-76
2021/11/13 00:05:46;;;;;;;22.67;10.47;;;4.20;1.00;;;;;;5013963;28;20216;-76
2021/11/13 00:08:18;;;;;;;24.08;9.30;;;4.10;1.00;;;;;;5014235;28;20200;-76
2021/11/13 00:10:45;;;;;;;24.63;10.73;;;4.10;1.00;;;;;;5014378;28;20181;-76
2021/11/13 00:13:11;;;;;;;21.83;9.48;;;4.10;1.00;;;;;;5014231;28;20184;-75
2021/11/13 00:15:37;;;;;;;23.57;10.13;;;4.10;1.00;;;;;;5013586;28;20177;-74
2021/11/13 00:18:03;;;;;;;24.23;9.48;;;4.20;1.00;;;;;;5013768;28;20774;-74
2021/11/13 00:20:37;;;;;;;33.85;10.60;;;4.20;1.00;;;;;;5012532;28;20211;-74
2021/11/13 00:23:06;;;;;;;19.83;9.27;;;4.10;1.00;;;;;;5001370;28;20184;-74
2021/11/13 00:25:42;;;;;;;26.08;10.75;;;4.20;1.00;;;;;;5013577;28;20484;-74
2021/11/13 00:28:08;;;;;;;22.02;9.82;;;4.20;1.00;;;;;;5014007;28;20161;-74
2021/11/13 00:30:38;;;;;;;24.33;10.70;;;4.20;1.00;;;;;;5013604;28;20196;-75
2021/11/13 00:33:18;;;;;;;20.23;9.55;;;4.20;1.00;;;;;;5013572;28;20173;-74
2021/11/13 00:35:44;;;;;;;23.63;8.85;;;4.10;1.00;;;;;;5014051;28;20242;-74
2021/11/13 00:38:10;;;;;;;37.67;10.57;;;;;;;;;;5017287;28;20176;-74
2021/11/13 00:40:37;;;;;;;17.45;9.20;;;4.20;1.00;;;;;;5017176;28;20193;-74
2021/11/13 00:43:12;;;;;;;18.88;8.27;;;4.20;1.00;;;;;;5016347;28;20185;-76
2021/11/13 00:45:48;;;;;;;24.80;9.27;;;4.10;1.00;;;;;;5017234;28;20537;-76
2021/11/13 00:48:36;;;;;;;24.42;9.25;;;4.20;1.00;;;;;;5017449;28;20181;-76
2021/11/13 00:51:02;;;;;;;24.05;9.23;;;4.20;1.00;;;;;;5017675;28;20181;-76
2021/11/13 00:53:30;;;;;;;25.30;10.00;;;4.20;1.00;;;;;;5017383;28;20184;-76
2021/11/13 00:56:18;;;;;;;25.77;9.10;;;4.20;1.00;;;;;;5017358;28;20212;-76
2021/11/13 00:58:54;;;;;;;18.23;9.13;;;4.10;1.00;;;;;;5003942;28;20185;-75
2021/11/13 01:01:20;;;;;;;21.95;8.68;;;4.10;1.00;;;;;;5012779;28;20205;-74
2021/11/13 01:03:55;;;;;;;17.38;8.57;;;;;;;;;;5017136;28;20647;-75
2021/11/13 01:06:20;;;;;;;27.98;9.55;;;4.10;1.00;;;;;;5013609;28;20212;-74
2021/11/13 01:08:48;;;;;;;25.93;8.53;;;4.00;1.00;;;;;;5016987;28;20636;-74
2021/11/13 01:11:15;;;;;;;22.13;9.40;;;4.00;1.00;;;;;;5016944;28;20188;-74
2021/11/13 01:13:41;;;;;;;19.90;9.05;;;4.00;1.00;;;;;;5006885;28;20180;-74
2021/11/13 01:16:07;;;;;;;20.35;9.02;;;4.00;1.00;;;;;;5013617;28;20259;-74
2021/11/13 01:18:33;;;;;;;14.70;8.93;;;4.10;1.00;;;;;;5016966;28;20263;-74
2021/11/13 01:20:59;;;;;;;21.77;9.93;;;4.00;1.00;;;;;;5017140;28;20606;-75
2021/11/13 01:23:30;;;;;;;21.30;9.47;;;4.00;1.00;;;;;;5016563;28;20569;-74
2021/11/13 01:25:56;;;;;;;21.90;8.57;;;4.00;1.00;;;;;;5016806;28;20455;-75
2021/11/13 01:28:24;;;;;;;27.60;9.37;;;3.90;1.00;;;;;;5016894;28;20173;-76
2021/11/13 01:30:50;;;;;;;30.25;8.63;;;3.90;1.00;;;;;;5016390;28;20177;-76
2021/11/13 01:33:24;;;;;;;21.30;10.40;;;3.90;1.00;;;;;;5016412;28;20251;-76
2021/11/13 01:35:50;;;;;;;18.23;9.60;;;3.90;1.00;;;;;;5016199;28;20973;-76
2021/11/13 01:38:24;;;;;;;23.90;9.90;;;3.90;1.00;;;;;;5016207;28;20204;-76
2021/11/13 01:40:50;;;;;;;20.10;9.00;;;3.90;1.00;;;;;;5016086;28;20790;-76
2021/11/13 01:43:15;;;;;;;37.97;11.10;;;3.90;1.00;;;;;;5015674;28;20188;-76
2021/11/13 01:45:41;;;;;;;22.57;10.40;;;3.90;1.00;;;;;;5014773;28;20212;-76
2021/11/13 01:48:07;;;;;;;22.23;10.50;;;4.00;1.00;;;;;;5014257;28;20470;-77
2021/11/13 01:50:40;;;;;;;25.33;8.83;;;3.90;1.00;;;;;;5014852;28;20219;-76
2021/11/13 01:53:07;;;;;;;21.45;9.93;;;4.00;1.00;;;;;;5015242;28;20587;-77
2021/11/13 01:55:37;;;;;;;29.50;10.73;;;3.90;1.00;;;;;;5014890;28;20177;-77
2021/11/13 01:58:05;;;;;;;27.23;11.10;;;3.90;1.00;;;;;;5006649;28;20185;-76
2021/11/13 02:00:44;;;;;;;24.60;11.18;;;3.90;1.00;;;;;;5007889;28;20204;-76
2021/11/13 02:03:13;;;;;;;26.25;9.65;;;3.90;1.00;;;;;;5013111;28;20264;-76
2021/11/13 02:05:54;;;;;;;21.33;10.77;;;4.00;1.00;;;;;;5015527;28;20176;-76
2021/11/13 02:08:24;;;;;;;24.75;10.73;;;4.00;1.00;;;;;;5016128;28;20169;-77
2021/11/13 02:10:54;;;;;;;22.42;10.10;;;4.00;1.00;;;;;;5014438;28;20535;-76
2021/11/13 02:13:36;;;;;;;27.08;10.95;;;4.00;1.00;;;;;;4995269;28;20177;-76
2021/11/13 02:16:08;;;;;;;31.85;10.27;;;4.00;1.00;;;;;;5014234;28;20185;-76
2021/11/13 02:18:43;;;;;;;30.92;10.65;;;4.00;1.00;;;;;;5015818;28;20164;-76
2021/11/13 02:21:10;;;;;;;23.35;10.18;;;4.10;1.00;;;;;;5015704;28;20200;-76
2021/11/13 02:23:38;;;;;;;33.95;11.60;;;4.10;1.00;;;;;;5015670;28;20173;-76
2021/11/13 02:26:06;;;;;;;26.10;11.13;;;4.10;1.00;;;;;;5015675;28;20215;-76
2021/11/13 02:28:42;;;;;;;30.35;10.93;;;4.10;1.00;;;;;;5015935;28;20169;-76
2021/11/13 02:31:11;;;;;;;24.77;10.73;;;4.10;1.00;;;;;;5003398;28;20176;-76
2021/11/13 02:34:12;;;;;;;27.80;11.50;;;4.10;1.00;;;;;;5015477;28;20173;-76
2021/11/13 02:36:54;;;;;;;30.15;11.63;;;4.10;1.00;;;;;;5015306;28;20183;-76
2021/11/13 02:39:20;;;;;;;26.65;11.68;;;4.10;1.00;;;;;;5015098;28;20211;-76
2021/11/13 02:41:54;;;;;;;26.40;10.83;;;4.10;1.00;;;;;;5015268;28;20193;-76
2021/11/13 02:44:20;;;;;;;26.83;10.52;;;4.20;1.00;;;;;;5015164;28;20423;-74
2021/11/13 02:46:49;;;;;;;23.63;10.95;;;4.20;1.00;;;;;;5014812;28;20644;-74
2021/11/13 02:49:25;;;;;;;24.13;11.57;;;4.20;1.00;;;;;;5015254;28;20628;-74
2021/11/13 02:51:51;;;;;;;28.58;10.73;;;4.20;1.00;;;;;;5013407;28;20216;-74
2021/11/13 02:54:18;;;;;;;27.47;11.23;;;4.20;1.00;;;;;;5014016;28;20185;-74
2021/11/13 02:56:44;;;;;;;31.92;10.98;;;;;;;;;;5014669;28;20188;-74
2021/11/13 02:59:10;;;;;;;30.80;11.45;;;4.10;1.00;;;;;;5010862;28;20260;-76
2021/11/13 03:01:48;;;;;;;30.43;11.03;;;4.20;1.00;;;;;;5014752;28;20712;-76
2021/11/13 03:04:24;;;;;;;35.05;11.85;;;4.10;1.00;;;;;;5014690;28;20161;-76
2021/11/13 03:06:54;;;;;;;24.38;11.27;;;4.10;1.00;;;;;;5014685;28;20571;-76
2021/11/13 03:09:24;;;;;;;36.13;11.00;;;4.10;1.00;;;;;;5014867;28;20183;-76
2021/11/13 03:11:54;;;;;;;29.05;12.68;;;4.20;1.00;;;;;;5014923;28;20284;-76
2021/11/13 03:14:20;;;;;;;17.17;9.65;;;4.20;1.00;;;;;;5013793;28;20560;-74
2021/11/13 03:16:48;;;;;;;36.47;12.33;;;4.20;1.00;;;;;;5013322;28;20216;-74
2021/11/13 03:19:14;;;;;;;32.03;11.87;;;4.10;1.00;;;;;;5014703;28;20217;-74
2021/11/13 03:21:43;;;;;;;36.90;13.00;;;4.10;1.00;;;;;;5014410;28;20969;-74
2021/11/13 03:24:13;;;;;;;28.60;11.00;;;4.10;1.00;;;;;;5013168;28;21002;-74
2021/11/13 03:26:42;;;;;;;25.55;13.15;;;4.10;1.00;;;;;;5014584;28;20181;-74
2021/11/13 03:29:29;;;;;;;41.95;11.80;;;4.20;1.00;;;;;;5004167;28;20184;-76
2021/11/13 03:32:12;;;;;;;33.10;11.57;;;4.20;1.00;;;;;;5014240;28;20641;-76
2021/11/13 03:34:38;;;;;;;29.10;10.73;;;4.20;1.00;;;;;;5014561;28;20216;-76
2021/11/13 03:37:04;;;;;;;41.08;12.10;;;4.10;1.00;;;;;;5014315;28;20263;-76
2021/11/13 03:39:30;;;;;;;23.23;10.40;;;4.20;1.00;;;;;;5014133;28;20192;-76
2021/11/13 03:42:13;;;;;;;26.57;10.87;;;4.20;1.00;;;;;;5014154;28;20193;-76
2021/11/13 03:44:42;;;;;;;37.83;12.23;;;4.20;1.00;;;;;;5014292;28;20494;-74
2021/11/13 03:47:08;;;;;;;32.47;11.60;;;4.20;1.00;;;;;;5014279;28;20177;-74
2021/11/13 03:49:36;;;;;;;25.67;11.33;;;4.20;1.00;;;;;;5014678;28;20177;-74
2021/11/13 03:52:03;;;;;;;25.90;11.18;;;4.30;1.00;;;;;;5014072;28;20197;-74
2021/11/13 03:54:31;;;;;;;33.53;12.70;;;4.30;1.00;;;;;;5014169;28;20239;-74
2021/11/13 03:57:00;;;;;;;31.02;12.60;;;4.30;1.00;;;;;;5013267;28;20177;-74
2021/11/13 03:59:27;;;;;;;32.70;12.20;;;4.40;1.00;;;;;;5009644;28;20213;-76
2021/11/13 04:01:54;;;;;;;35.03;12.43;;;4.40;1.00;;;;;;5000177;28;20201;-76
2021/11/13 04:04:42;;;;;;;25.65;11.40;;;4.40;1.00;;;;;;5012719;28;20173;-76
2021/11/13 04:07:08;;;;;;;31.25;11.82;;;4.40;1.00;;;;;;5013665;28;20168;-76
2021/11/13 04:09:35;;;;;;;40.33;13.23;;;4.40;1.00;;;;;;5014045;28;20181;-76
2021/11/13 04:12:07;;;;;;;30.27;12.65;;;4.50;1.00;;;;;;5018185;28;20573;-76
2021/11/13 04:14:54;;;;;;;31.43;11.97;;;4.50;1.00;;;;;;5018168;28;20235;-76
2021/11/13 04:17:19;;;;;;;27.40;11.48;;;4.50;1.00;;;;;;5018421;28;20396;-76
2021/11/13 04:19:54;;;;;;;39.00;12.03;;;4.40;1.00;;;;;;5004860;28;20230;-76
2021/11/13 04:22:24;;;;;;;40.17;12.10;;;4.40;1.00;;;;;;5018321;28;20199;-76
2021/11/13 04:24:54;;;;;;;33.25;11.95;;;4.40;1.00;;;;;;5017918;28;20411;-76
2021/11/13 04:27:20;;;;;;;22.35;10.45;;;4.40;1.00;;;;;;5018103;28;20212;-76
2021/11/13 04:29:48;;;;;;;33.40;12.37;;;4.50;1.00;;;;;;5018459;28;20181;-76
2021/11/13 04:32:18;;;;;;;36.30;11.57;;;4.50;1.00;;;;;;5017869;28;20769;-76
2021/11/13 04:37:25;;;;;;;26.53;11.50;;;4.50;1.00;;;;;;5017987;28;20412;-75
2021/11/13 04:39:51;;;;;;;25.00;10.10;;;4.50;1.00;;;;;;5016377;28;20426;-76
2021/11/13 04:42:18;;;;;;;22.43;11.03;;;4.50;1.00;;;;;;5016812;28;20566;-76
2021/11/13 04:44:54;;;;;;;38.03;11.53;;;4.50;1.00;;;;;;5017190;28;20191;-74
2021/11/13 04:47:24;;;;;;;32.30;10.10;;;4.60;1.00;;;;;;5016461;28;20440;-74
2021/11/13 04:49:54;;;;;;;20.70;9.73;;;4.50;1.00;;;;;;5017517;28;20181;-75
2021/11/13 04:52:24;;;;;;;28.77;9.90;;;4.40;1.00;;;;;;5004392;28;20661;-74
2021/11/13 04:54:50;;;;;;;33.25;10.45;;;4.40;1.00;;;;;;5020944;28;20185;-74
2021/11/13 04:57:16;;;;;;;26.37;10.40;;;;;;;;;;5016296;28;20287;-74
2021/11/13 04:59:42;;;;;;;35.40;10.97;;;4.40;1.00;;;;;;5014722;28;20487;-75
2021/11/13 05:02:12;;;;;;;28.73;9.90;;;4.40;1.00;;;;;;5016861;28;20824;-76
2021/11/13 05:04:42;;;;;;;25.03;10.40;;;4.40;1.00;;;;;;5016814;28;20209;-76
2021/11/13 05:07:18;;;;;;;19.33;9.55;;;4.40;1.00;;;;;;5017283;28;20408;-76
2021/11/13 05:09:49;;;;;;;19.93;9.60;;;4.40;1.00;;;;;;5017027;28;20628;-76
2021/11/13 05:12:19;;;;;;;21.37;10.30;;;4.40;1.00;;;;;;5015872;28;20519;-76
2021/11/13 05:14:48;;;;;;;22.13;8.63;;;4.40;1.00;;;;;;5017544;28;20941;-76
2021/11/13 05:17:18;;;;;;;25.55;10.30;;;4.40;1.00;;;;;;5017126;28;20420;-75
2021/11/13 05:19:54;;;;;;;27.90;11.25;;;4.40;1.00;;;;;;5015647;28;20549;-75
2021/11/13 05:22:20;;;;;;;25.42;8.93;;;4.40;1.00;;;;;;5016743;28;20671;-76
2021/11/13 05:24:46;;;;;;;32.97;11.10;;;4.40;1.00;;;;;;5015644;28;20185;-76
2021/11/13 05:27:12;;;;;;;27.37;11.70;;;4.40;1.00;;;;;;5017053;28;20230;-75
2021/11/13 05:29:38;;;;;;;27.50;10.50;;;4.50;1.00;;;;;;5017123;28;20219;-74
2021/11/13 05:32:07;;;;;;;29.07;10.30;;;4.50;1.00;;;;;;5016469;28;20185;-74
2021/11/13 05:34:36;;;;;;;31.80;10.60;;;4.50;1.00;;;;;;5014153;28;20477;-74
2021/11/13 05:37:06;;;;;;;28.90;11.30;;;4.50;1.00;;;;;;5016521;28;20187;-74
2021/11/13 05:39:32;;;;;;;28.88;9.35;;;4.50;1.00;;;;;;5014130;28;20491;-74
2021/11/13 05:41:58;;;;;;;24.80;11.00;;;4.50;1.00;;;;;;5016259;28;20304;-74
2021/11/13 05:44:24;;;;;;;27.23;10.33;;;4.50;1.00;;;;;;5016132;28;20427;-75
2021/11/13 05:46:54;;;;;;;18.83;10.27;;;4.50;1.00;;;;;;5016324;28;20642;-75
2021/11/13 05:49:20;;;;;;;30.70;11.40;;;4.50;1.00;;;;;;5016626;28;20420;-76
2021/11/13 05:51:45;;;;;;;26.17;10.70;;;4.50;1.00;;;;;;5016068;28;20677;-76
2021/11/13 05:54:42;;;;;;;23.40;10.90;;;4.50;1.00;;;;;;5015194;28;20185;-76
2021/11/13 05:57:12;;;;;;;29.38;10.10;;;4.50;1.00;;;;;;5015454;28;20191;-76
2021/11/13 05:59:38;;;;;;;23.50;10.20;;;4.50;1.00;;;;;;5003154;28;20269;-75
2021/11/13 06:02:04;;;;;;;23.27;9.87;;;4.50;1.00;;;;;;5014890;28;20301;-76
2021/11/13 06:04:30;;;;;;;16.65;8.95;;;4.50;1.00;;;;;;5015574;28;20176;-75
2021/11/13 06:07:00;;;;;;;45.03;10.60;;;4.50;1.00;;;;;;4995060;28;20178;-76
2021/11/13 06:09:27;;;;;;;20.75;9.73;;;4.50;1.00;;;;;;5015715;28;20191;-75
2021/11/13 06:12:06;;;;;;;24.43;10.67;;;4.50;1.00;;;;;;5015954;28;20181;-76
2021/11/13 06:14:32;;;;;;;30.13;11.48;;;4.40;1.00;;;;;;5016354;28;20410;-75
2021/11/13 06:16:58;;;;;;;20.37;10.20;;;4.50;1.00;;;;;;5005333;28;20174;-75
2021/11/13 06:19:24;;;;;;;28.50;9.23;;;;;;;;;;4996420;28;20240;-75
2021/11/13 06:21:54;;;;;;;24.70;10.13;;;4.60;1.00;;;;;;5013565;28;20201;-74
2021/11/13 06:24:26;;;;;;;33.03;9.83;;;4.50;1.00;;;;;;5014077;28;20431;-75
2021/11/13 06:26:53;;;;;;;37.87;11.50;;;4.50;1.00;;;;;;5014087;28;20513;-74
2021/11/13 06:29:19;;;;;;;23.40;10.13;;;4.50;1.00;;;;;;5013623;28;20846;-74
2021/11/13 06:31:44;;;;;;;31.83;10.50;;;4.60;1.00;;;;;;5015303;28;20511;-74
2021/11/13 06:34:12;;;;;;;27.17;11.30;;;4.60;1.00;;;;;;5013362;28;20231;-75
2021/11/13 06:36:38;;;;;;;26.83;9.90;;;4.60;1.00;;;;;;5015063;28;20184;-74
2021/11/13 06:39:04;;;;;;;29.43;11.80;;;4.60;1.00;;;;;;5014279;28;20584;-74
2021/11/13 06:41:31;;;;;;;32.83;11.10;;;4.60;1.00;;;;;;5013058;28;20296;-75
2021/11/13 06:44:01;;;;;;;23.50;9.13;;;4.60;1.00;;;;;;5014833;28;20176;-75
2021/11/13 06:46:42;;;;;;;20.80;10.57;;;4.60;1.00;;;;;;5015631;28;20244;-75
2021/11/13 06:49:12;;;;;;;15.83;9.60;;;4.60;1.00;;;;;;4994311;28;20785;-76
2021/11/13 06:51:42;;;;;;;24.80;10.38;;;4.70;1.00;;;;;;5010966;28;20929;-76
2021/11/13 06:54:12;;;;;;;21.90;10.00;;;4.70;1.00;;;;;;5013728;28;20187;-76
2021/11/13 06:57:00;;;;;;;33.63;11.07;;;4.70;1.00;;;;;;5015168;28;20427;-76
2021/11/13 06:59:26;;;;;;;22.97;9.87;;;4.70;1.00;;;;;;5006571;28;20466;-76
2021/11/13 07:01:52;;;;;;;19.45;9.85;;;4.70;1.00;;;;;;5014758;28;20451;-77
2021/11/13 07:04:18;;;;;;;25.60;10.10;;;4.70;1.00;;;;;;5013731;28;20728;-77
2021/11/13 07:06:44;;;;;;;24.47;11.40;;;4.70;1.00;;;;;;5014801;28;20419;-77
2021/11/13 07:09:12;;;;;;;23.70;11.40;;;4.70;1.00;;;;;;5014815;28;20180;-76
2021/11/13 07:11:48;;;;;;;32.88;12.00;;;4.70;1.00;;;;;;5003057;28;20173;-76
2021/11/13 07:14:14;;;;;;;25.30;10.43;;;4.70;1.00;;;;;;5014848;28;20227;-76
2021/11/13 07:16:40;;;;;;;23.80;9.27;;;4.70;1.00;;;;;;5015247;28;20412;-75
2021/11/13 07:19:05;;;;;;;26.57;11.23;;;4.70;1.00;;;;;;5013045;28;20504;-75
2021/11/13 07:21:39;;;;;;;21.67;10.47;;;4.80;1.00;;;;;;5002084;28;20455;-74
2021/11/13 07:24:08;;;;;;;23.27;10.23;;;4.70;1.00;;;;;;5011937;28;20169;-74
2021/11/13 07:26:35;;;;;;;24.70;10.43;;;4.80;1.00;;;;;;5004589;28;20412;-75
2021/11/13 07:29:06;;;;;;;24.58;10.68;;;4.80;1.00;;;;;;5012210;28;20412;-74
2021/11/13 07:31:33;;;;;;;20.77;10.77;;;4.70;1.00;;;;;;5002940;28;20647;-76
2021/11/13 07:33:59;;;;;;;28.87;9.50;;;4.70;1.00;;;;;;5014287;28;20407;-76
2021/11/13 07:36:30;;;;;;;19.90;10.70;;;4.80;1.00;;;;;;5011330;28;20966;-76
2021/11/13 07:39:18;;;;;;;27.23;10.90;;;4.80;1.00;;;;;;5007984;28;20238;-76
2021/11/13 07:41:44;;;;;;;27.33;10.90;;;4.80;1.00;;;;;;5014366;28;20462;-76
2021/11/13 07:44:09;;;;;;;20.50;10.70;;;4.80;1.00;;;;;;5013574;28;20169;-79
2021/11/13 07:46:43;;;;;;;20.83;10.03;;;4.90;1.00;;;;;;5014107;28;20177;-76
2021/11/13 07:49:13;;;;;;;22.80;10.40;;;5.00;1.00;;;;;;5014405;28;20494;-76
2021/11/13 07:51:54;;;;;;;25.02;10.95;;;5.00;1.00;;;;;;5014240;28;20966;-75
2021/11/13 07:54:24;;;;;;;24.57;11.80;;;5.10;1.00;;;;;;5013465;28;20277;-76
2021/11/13 07:56:50;;;;;;;22.52;10.05;;;5.10;1.00;;;;;;5014186;28;20419;-75
2021/11/13 07:59:16;;;;;;;27.77;12.10;;;5.10;1.00;;;;;;5014091;28;20173;-75
2021/11/13 08:01:42;;;;;;;29.20;11.97;;;5.10;1.00;;;;;;5014284;28;20204;-74
2021/11/13 08:04:12;;;;;;;22.20;9.77;;;5.10;1.00;;;;;;5013829;28;20911;-74
2021/11/13 08:06:43;;;;;;;17.60;9.77;;;5.10;1.00;;;;;;5013772;28;20416;-75
2021/11/13 08:09:19;;;;;;;20.53;9.67;;;5.10;1.00;;;;;;5013922;28;20448;-75
2021/11/13 08:11:48;;;;;;;22.40;10.40;;;5.10;1.00;;;;;;5000770;28;20506;-75
2021/11/13 08:14:14;;;;;;;26.67;11.07;;;5.20;1.00;;;;;;4995663;28;20405;-75
2021/11/13 08:16:44;;;;;;;20.43;10.63;;;5.30;1.00;;;;;;5013373;28;20470;-74
2021/11/13 08:19:09;;;;;;;19.67;10.37;;;5.30;1.00;;;;;;5008458;28;20415;-78
2021/11/13 08:21:36;;;;;;;31.73;12.10;;;5.30;1.00;;;;;;5013763;28;20550;-75
2021/11/13 08:24:02;;;;;;;22.30;10.73;;;5.30;1.00;;;;;;5009508;28;20458;-74
2021/11/13 08:26:30;;;;;;;22.33;11.00;;;5.40;1.00;;;;;;5013407;28;20968;-74
2021/11/13 08:29:00;;;;;;;22.23;10.67;;;5.40;1.00;;;;;;5013639;28;20450;-74
2021/11/13 08:31:36;;;;;;;23.10;10.80;;;5.50;1.00;;;;;;5012940;28;20911;-76
2021/11/13 08:34:06;;;;;;;27.07;12.10;;;5.50;1.00;;;;;;5013486;28;20930;-77
2021/11/13 08:36:36;;;;;;;19.27;10.20;;;5.50;1.00;;;;;;5008282;28;20494;-76
2021/11/13 08:39:25;;;;;;;27.63;10.50;;;5.50;1.00;;;;;;5008550;28;20465;-76
2021/11/13 08:42:11;;;;;;;16.70;9.37;;;5.60;1.00;;;;;;5005498;28;20471;-76
2021/11/13 08:44:43;;;;;;;19.10;9.90;;;5.60;1.00;;;;;;5009695;28;20424;-77
2021/11/13 08:47:14;;;;;;;25.60;11.43;;;5.60;1.00;;;;;;5014119;28;20388;-76
2021/11/13 08:49:42;;;;;;;23.53;10.30;;;5.60;1.00;;;;;;5013983;28;20426;-76
2021/11/13 08:52:30;;;;;;;20.87;10.00;;;5.60;1.00;;;;;;5013609;28;20427;-77
2021/11/13 08:55:01;;;;;;;23.07;10.70;;;5.70;1.00;;;;;;5013554;28;20448;-76
2021/11/13 08:57:30;;;;;;;18.47;9.17;;;5.60;1.00;;;;;;5016590;28;20404;-75
2021/11/13 09:00:01;;;;;;;22.53;10.70;;;5.60;1.00;;;;;;5017129;28;20403;-76
2021/11/13 09:02:28;;;;;;;17.60;9.57;;;5.70;1.00;;;;;;5004579;28;20522;-74
2021/11/13 09:04:56;;;;;;;20.37;10.40;;;5.80;1.00;;;;;;5004329;28;20499;-74
2021/11/13 09:07:25;;;;;;;22.53;10.53;;;5.90;1.00;;;;;;5004560;28;20404;-74
2021/11/13 09:10:02;;;;;;;15.67;9.37;;;5.90;1.00;;;;;;5004866;28;20479;-74
2021/11/13 09:12:28;;;;;;;20.70;11.27;;;6.00;1.00;;;;;;5009961;28;20412;-74
2021/11/13 09:14:57;;;;;;;25.83;10.57;;;6.00;1.00;;;;;;5016866;28;20451;-74
2021/11/13 09:17:31;;;;;;;21.53;10.47;;;6.00;1.00;;;;;;5016956;28;20802;-74
2021/11/13 09:19:57;;;;;;;28.30;11.33;;;6.00;1.00;;;;;;5016774;28;20403;-74
2021/11/13 09:22:23;;;;;;;24.90;10.93;;;6.10;1.00;;;;;;5003250;28;20460;-74
2021/11/13 09:24:55;;;;;;;22.97;10.70;;;6.10;1.00;;;;;;5016706;28;20415;-74
2021/11/13 09:27:24;;;;;;;20.33;9.93;;;6.10;1.00;;;;;;5016836;28;20411;-74
2021/11/13 09:29:50;;;;;;;24.23;10.23;;;6.20;1.00;;;;;;5016623;28;20435;-74
2021/11/13 09:32:16;;;;;;;21.30;11.07;;;6.20;1.00;;;;;;5016366;28;20936;-74
2021/11/13 09:34:42;;;;;;;22.20;11.03;;;6.30;1.00;;;;;;5015617;28;20420;-74
2021/11/13 09:37:08;;;;;;;21.03;10.20;;;6.30;1.00;;;;;;5011428;28;20648;-75
2021/11/13 09:39:34;;;;;;;19.30;10.47;;;6.40;1.00;;;;;;5008284;28;20404;-74
2021/11/13 09:42:02;;;;;;;19.87;10.83;;;6.40;1.00;;;;;;5014718;28;20509;-74
2021/11/13 09:44:27;;;;;;;23.20;9.50;;;6.50;1.00;;;;;;5011617;28;20295;-74
2021/11/13 09:46:59;;;;;;;24.77;10.77;;;6.40;1.00;;;;;;5011467;28;20628;-75
2021/11/13 09:49:54;;;;;;;20.67;10.77;;;6.50;1.00;;;;;;5016773;28;20204;-76
2021/11/13 09:52:20;;;;;;;26.77;11.93;;;6.50;1.00;;;;;;5014589;28;20917;-76
2021/11/13 09:54:48;;;;;;;18.43;10.63;;;6.30;1.00;;;;;;5014481;28;20432;-76
2021/11/13 09:57:14;;;;;;;23.87;11.17;;;6.40;1.00;;;;;;5016070;28;20412;-76
2021/11/13 09:59:42;;;;;;;22.83;11.37;;;6.40;1.00;;;;;;5014705;28;20561;-76
2021/11/13 10:02:25;;;;;;;20.53;10.57;;;6.50;1.00;;;;;;5015678;28;20447;-75
2021/11/13 10:04:54;;;;;;;19.23;8.80;;;7.20;1.00;;;;;;5015380;28;20388;-77
2021/11/13 10:07:21;;;;;;;27.10;10.80;;;;;;;;;;5015186;28;20883;-74
2021/11/13 10:09:50;;;;;;;29.73;13.10;;;7.70;1.00;;;;;;5009051;28;20910;-74
2021/11/13 10:12:16;;;;;;;27.60;13.37;;;8.30;1.00;;;;;;5007731;28;20463;-74
2021/11/13 10:14:42;;;;;;;42.57;16.23;;;8.60;1.00;;;;;;5015566;28;21000;-74
2021/11/13 10:17:23;;;;;;;31.23;13.13;;;9.00;1.00;;;;;;5015817;28;20416;-74
2021/11/13 10:19:50;;;;;;;19.40;9.53;;;9.20;1.00;;;;;;5001551;28;20420;-75
2021/11/13 10:22:17;;;;;;;16.90;8.97;;;9.30;1.00;;;;;;5015608;28;20486;-77
2021/11/13 10:24:53;;;;;;;21.10;9.33;;;9.60;1.00;;;;;;5014112;28;20412;-81
2021/11/13 10:28:02;;;;;;;19.23;9.40;;;9.80;1.00;;;;;;5015204;28;20419;-78
2021/11/13 10:30:31;;;;;;;16.00;8.70;;;;;;;;;;5013937;28;20961;-77
2021/11/13 10:33:31;;;;;;;19.50;9.13;;;9.90;1.00;;;;;;5015183;28;20470;-78
2021/11/13 10:36:08;;;;;;;19.30;9.00;;;9.90;1.00;;;;;;5010026;28;20440;-78
2021/11/13 10:38:38;;;;;;;22.90;9.73;;;;;;;;;;5014821;28;20415;-79
2021/11/13 10:41:06;;;;;;;22.13;9.00;;;;;;;;;;5007106;28;20986;-78
2021/11/13 10:44:18;;;;;;;22.13;9.23;;;10.00;1.00;;;;;;5012413;28;20433;-79
2021/11/13 10:46:45;;;;;;;21.97;9.23;;;;;;;;;;5011297;28;20515;-79
2021/11/13 10:49:25;;;;;;;24.57;8.87;;;;;;;;;;5014673;28;20959;-79
2021/11/13 10:51:57;;;;;;;21.77;8.50;;;10.20;1.00;;;;;;5013513;28;20451;-78
2021/11/13 10:54:25;;;;;;;24.47;9.77;;;;;;;;;;5001968;28;20471;-79
2021/11/13 10:56:55;;;;;;;31.80;9.27;;;10.30;1.00;;;;;;5010170;28;20435;-79
2021/11/13 10:59:30;;;;;;;21.60;9.13;;;10.30;1.00;;;;;;5014121;28;20422;-79
2021/11/13 11:02:07;;;;;;;25.43;8.47;;;10.30;1.00;;;;;;5011241;28;20469;-78
2021/11/13 11:04:35;;;;;;;17.37;8.93;;;10.30;1.00;;;;;;5008933;28;20885;-78
2021/11/13 11:07:10;;;;;;;30.77;9.30;;;10.20;1.00;;;;;;5005365;28;20837;-74
2021/11/13 11:09:36;;;;;;;19.00;8.80;;;;;;;;;;5013342;28;20506;-73
2021/11/13 11:12:12;;;;;;;31.93;9.07;;;10.00;1.00;;;;;;5014353;28;20425;-75
2021/11/13 11:14:40;;;;;;;34.27;10.77;;;;;;;;;;5013001;28;20874;-74
2021/11/13 11:17:26;;;;;;;25.40;9.40;;;9.70;1.00;;;;;;5014040;28;20503;-74
2021/11/13 11:19:54;;;;;;;22.80;9.70;;;9.50;1.00;;;;;;5001680;28;20438;-75
2021/11/13 11:22:24;;;;;;;25.30;10.00;;;9.30;1.00;;;;;;5014677;28;20462;-74
2021/11/13 11:24:51;;;;;;;29.13;8.90;;;;;;;;;;5014444;28;20538;-74
2021/11/13 11:27:34;;;;;;;23.43;9.63;;;;;;;;;;5014309;28;20412;-74
2021/11/13 11:30:15;;;;;;;22.83;10.03;;;8.80;1.00;;;;;;5014568;28;20879;-74
2021/11/13 11:32:48;;;;;;;24.90;9.60;;;;;;;;;;5013002;28;20910;-74
2021/11/13 11:35:39;;;;;;;25.27;9.80;;;8.50;1.00;;;;;;5014160;28;20447;-74
2021/11/13 11:38:07;;;;;;;57.57;11.10;;;8.40;1.00;;;;;;5013452;28;20469;-74
2021/11/13 11:40:37;;;;;;;20.43;9.67;;;8.30;1.00;;;;;;5013043;28;20550;-74
2021/11/13 11:43:04;;;;;;;22.70;9.37;;;8.30;1.00;;;;;;5013333;28;20465;-74
2021/11/13 11:45:34;;;;;;;25.73;9.20;;;;;;;;;;5012801;28;20506;-75
2021/11/13 11:48:00;;;;;;;24.60;10.30;;;;;;;;;;5011973;28;20431;-75
2021/11/13 11:50:30;;;;;;;27.17;9.90;;;8.00;1.00;;;;;;5013163;28;20450;-75
2021/11/13 11:53:00;;;;;;;48.80;10.87;;;;;;;;;;5010167;28;20470;-74
2021/11/13 11:55:27;;;;;;;22.60;9.47;;;8.00;1.00;;;;;;5005999;28;20420;-75
2021/11/13 11:57:55;;;;;;;19.17;8.53;;;7.90;1.00;;;;;;5011649;28;20779;-75
2021/11/13 12:00:23;;;;;;;24.40;8.73;;;7.90;1.00;;;;;;5012971;28;20447;-75
2021/11/13 12:02:51;;;;;;;24.63;10.00;;;;;;;;;;5011108;28;20423;-75
2021/11/13 12:05:29;;;;;;;22.70;9.53;;;7.80;1.00;;;;;;5012827;28;20420;-75
2021/11/13 12:07:56;;;;;;;24.20;10.37;;;7.80;1.00;;;;;;5013124;28;20415;-75
2021/11/13 12:10:26;;;;;;;21.47;9.33;;;7.70;1.00;;;;;;5012893;28;20416;-75
2021/11/13 12:13:13;;;;;;;15.27;7.90;;;7.70;1.00;;;;;;5012862;28;20807;-75
2021/11/13 12:15:43;;;;;;;25.97;9.63;;;;;;;;;;5012829;28;20408;-75
2021/11/13 12:18:19;;;;;;;38.23;10.50;;;7.70;1.00;;;;;;5012661;28;20408;-75
2021/11/13 12:20:45;;;;;;;23.17;9.20;;;;;;;;;;5012668;28;20494;-75
2021/11/13 12:23:33;;;;;;;24.27;10.20;;;7.70;1.00;;;;;;5013046;28;20412;-75
2021/11/13 12:26:11;;;;;;;30.37;10.10;;;7.70;1.00;;;;;;4952108;29;20426;-75
2021/11/13 12:28:43;;;;;;;21.50;9.97;;;;;;;;;;4951981;29;20789;-75
2021/11/13 12:31:11;;;;;;;32.70;9.97;;;;;;;;;;4953857;28;20430;-74
2021/11/13 12:33:37;;;;;;;34.23;11.00;;;;;;;;;;4956959;29;20967;-74
2021/11/13 12:36:16;;;;;;;22.50;10.07;;;7.60;1.00;;;;;;4957156;29;20421;-75
2021/11/13 12:38:52;;;;;;;15.77;8.97;;;7.50;1.00;;;;;;4957025;29;22031;-78
2021/11/13 12:41:20;;;;;;;25.07;9.43;;;;;;;;;;4956223;29;20461;-78
2021/11/13 12:43:55;;;;;;;22.70;9.47;;;;;;;;;;4940489;29;20513;-78
2021/11/13 12:46:42;;;;;;;16.33;8.90;;;;;;;;;;4956775;29;20422;-78
2021/11/13 12:49:37;;;;;;;22.50;9.00;;;7.40;1.00;;;;;;4956840;29;20434;-78
2021/11/13 12:52:11;;;;;;;20.70;9.77;;;;;;;;;;4956737;29;20471;-78
2021/11/13 12:54:50;;;;;;;22.90;9.93;;;7.40;1.00;;;;;;4954159;28;20952;-75
2021/11/13 12:57:34;;;;;;;24.83;9.90;;;7.40;1.00;;;;;;4940301;29;20438;-74
2021/11/13 13:00:27;;;;;;;21.37;10.33;;;7.40;1.00;;;;;;4956790;29;20902;-75
2021/11/13 13:03:14;;;;;;;25.37;9.70;;;7.40;1.00;;;;;;4977958;28;20523;-75
2021/11/13 13:05:41;;;;;;;22.63;9.53;;;7.50;1.00;;;;;;5015124;28;20952;-74
2021/11/13 13:08:17;;;;;;;21.20;10.27;;;7.60;1.00;;;;;;5017074;28;20420;-77
2021/11/13 13:10:44;;;;;;;21.13;10.37;;;;;;;;;;5009774;28;20431;-77
2021/11/13 13:13:14;;;;;;;26.17;11.30;;;7.60;1.00;;;;;;5016526;28;20416;-78
2021/11/13 13:15:50;;;;;;;29.00;11.30;;;7.60;1.00;;;;;;5016368;28;21112;-77
2021/11/13 13:18:19;;;;;;;25.87;11.33;;;;;;;;;;5016781;28;20392;-77
2021/11/13 13:20:49;;;;;;;15.00;8.90;;;;;;;;;;5015487;28;20896;-77